KOSC/OSC METAR and TAF weather

Enter ICAO airport designator
Station Type Date Time Source
KOSC METAR 2019/06/17 14:36 UTC NOAA

KOSC 171436Z AUTO 09003KT 10SM OVC120 16/09 A3005 RMK AO2 T01600085


Station Type Date Time Source
KOSC Decoded METAR 2019/06/17 14:36 UTC NOAA

Oscoda, Oscoda-Wurtsmith Airport, MI, United States (KOSC) 44-27N 083-22W
Jun 17, 2019 - 10:36 AM EDT / 2019.06.17 1436 UTC
Wind: from the E (090 degrees) at 3 MPH (3 KT):0
Visibility: 10 mile(s):0
Sky conditions: overcast
Temperature: 60.8 F (16.0 C)
Dew Point: 47.3 F (8.5 C)
Relative Humidity: 61%
Pressure (altimeter): 30.05 in. Hg (1017 hPa)
ob: KOSC 171436Z AUTO 09003KT 10SM OVC120 16/09 A3005 RMK AO2 T01600085
cycle: 14

Station Type Date Time Source
KOSC TAF UTC NOAA

Error!

Example: see airport list